Details From MGPB - PUERTO BARRIOS
To MMCM - CHETUMAL INTL
Flight Number -
Tags decoded
Created
Modified
Stats Distance 169 nm / 313 km
Max Altitude 0 ft / 0 m
Waypoints 4
Social Downloads 0
Likes 0
Share VATSIM

Download

Looking for another format? Having issues loading an existing format? Contact us
Advertisement - Login to hide

Notes

Requested: MGPB PESGA OLOVA ZDZ ULEVA MMCM Unmatched points: PESGA ZDZ

Route

MGPB OLOVA ULEVA MMCM

ID Type Via Altitude Latitude Longitude Leg Dist Tot Dist Heading (true) Name
O MGPB APT - 0 ft / 0 m 15.73087˚ -88.58377˚ - 0 nm - PUERTO BARRIOS
OLOVA FIX - 0 ft / 0 m 17.20167˚ -88.57222˚ 88 nm 88 nm 0° / 0° -
ULEVA FIX - 0 ft / 0 m 17.95500˚ -88.31500˚ 47 nm 135 nm 18° / 18° -
O MMCM APT - 0 ft / 0 m 18.50467˚ -88.32685˚ 33 nm 168 nm 359° / 359° CHETUMAL INTL

Altitude Profile

Advertisement - Login to hide

Weather


0- 5 10 15 20 25 30 35+ Temperature / ° C

Clouds and Precipitation
Forecast for 2017-12-12 18:00 UTC. Updated an hour ago

Ground ~20,000 ft ~40,000 ft Winds

MGPB

Details ICAO MGPB (PBR)
Name PUERTO BARRIOS
Region Guatemala
Timezone America/Guatemala (UTC-6.0)
Stats Elevation 33 ft / 10 m (AMSL)
Location 15.730872° -88.583765°
Runways 1
Magnetic Variation 0.144° W

METAR

MGPB 121400Z 00000KT 9999 FEW018 BKN090 21/18 Q1022 A3018

Decode

TAF

TAF TAF MGPB 121100Z 1212/1312 00000KT CAVOK TX24/1220Z TN16/1212Z BECMG 1214/1216 27008KT FEW018 BECMG 1301/1303 00000KT SCT016

Decode

Departure Runways

ID Width Length Bearing (true) Bearing (mag) Surface Threshold Offset Overrun Length
12 110 ft / 34 m 8,861 ft / 2,701 m 127.91° 128.05° Concrete 0 ft / 0 m 0 ft / 0 m
30 110 ft / 34 m 8,861 ft / 2,701 m 307.92° 308.06° Concrete 0 ft / 0 m 0 ft / 0 m

MMCM

Details ICAO MMCM (CTM)
Name CHETUMAL INTL
Region Mexico
Timezone America/Cancun (UTC-5.0)
Stats Elevation 39 ft / 12 m (AMSL)
Location 18.504666° -88.326847°
Runways 1
Magnetic Variation 0.678° W

METAR

MMCM 121340Z 32005KT 7SM BKN080 16/15 A3019 RMK 8/020 HZY

Decode

TAF

TAF MMCM 120545Z 1206/1306 00000KT P6SM BKN250 FM121800 34010KT P6SM SCT090 SCT250 BECMG 1303/1305 36004KT

Decode

Destination Runways

ID Width Length Bearing (true) Bearing (mag) Surface Threshold Offset Overrun Length
10 151 ft / 46 m 7,214 ft / 2,199 m 108.17° 108.85° Asphalt 0 ft / 0 m 0 ft / 0 m
28 151 ft / 46 m 7,214 ft / 2,199 m 288.18° 288.86° Asphalt 869 ft / 265 m 0 ft / 0 m

Popular Alternatives